Time;durP1;ratioP1;P1;durP2;ratioP2;P2;SDS_P1;SDS_P2;PMS_P1;PMS_P2;Temp;Humidity;BMP_temperature;BMP_pressure;BME280_temperature;BME280_humidity;BME280_pressure;Samples;Min_cycle;Max_cycle;Signal;HPM_P1;HPM_P2
2022/03/27 00:01:56;;;;;;;1.75;0.65;;;;;;;;;;1817627;77;26296;-58
2022/03/27 00:04:23;;;;;;;0.40;0.40;;;;;;;;;;1816968;77;26272;-59
2022/03/27 00:06:50;;;;;;;0.40;0.40;;;;;;;;;;1817027;77;26266;-57
2022/03/27 00:09:18;;;;;;;0.50;0.50;;;;;;;;;;1817634;77;26298;-57
2022/03/27 00:11:45;;;;;;;0.42;0.42;;;;;;;;;;1816075;77;26363;-58
2022/03/27 00:14:12;;;;;;;0.70;0.35;;;;;;;;;;1812089;77;26301;-53
2022/03/27 00:16:39;;;;;;;0.45;0.45;;;;;;;;;;1813749;77;26293;-56
2022/03/27 00:19:07;;;;;;;0.40;0.40;;;;;;;;;;1817474;77;26327;-55
2022/03/27 00:21:34;;;;;;;0.62;0.55;;;;;;;;;;1809955;77;26295;-50
2022/03/27 00:24:01;;;;;;;0.40;0.40;;;;;;;;;;1811484;77;26305;-53
2022/03/27 00:26:28;;;;;;;0.47;0.47;;;;;;;;;;1813006;77;26246;-55
2022/03/27 00:28:56;;;;;;;0.50;0.50;;;;;;;;;;1813072;77;26681;-57
2022/03/27 00:31:23;;;;;;;0.47;0.40;;;;;;;;;;1817511;77;26332;-55
2022/03/27 00:33:50;;;;;;;1.10;0.50;;;;;;;;;;1817736;77;26255;-55
2022/03/27 00:36:18;;;;;;;0.40;0.40;;;;;;;;;;1816443;77;26274;-52
2022/03/27 00:38:46;;;;;;;0.30;0.30;;;;;;;;;;1815414;77;26289;-58
2022/03/27 00:41:14;;;;;;;0.45;0.40;;;;;;;;;;1813299;77;26536;-53
2022/03/27 00:43:41;;;;;;;0.40;0.40;;;;;;;;;;1811971;77;26367;-53
2022/03/27 00:46:09;;;;;;;0.45;0.45;;;;;;;;;;1814047;77;26343;-49
2022/03/27 00:48:36;;;;;;;0.30;0.30;;;;;;;;;;1812282;77;26305;-54
2022/03/27 00:51:04;;;;;;;0.47;0.47;;;;;;;;;;1814361;77;26321;-53
2022/03/27 00:53:32;;;;;;;0.30;0.30;;;;;;;;;;1814829;77;26407;-55
2022/03/27 00:55:59;;;;;;;0.55;0.40;;;;;;;;;;1808174;78;26263;-50
2022/03/27 00:58:26;;;;;;;0.50;0.50;;;;;;;;;;1813353;78;26769;-56
2022/03/27 01:00:58;;;;;;;0.30;0.30;;;;;;;;;;1810791;78;26635;-53
2022/03/27 01:03:26;;;;;;;1.17;0.30;;;;;;;;;;1803203;78;26324;-57
2022/03/27 01:05:57;;;;;;;0.42;0.42;;;;;;;;;;1806708;78;26827;-50
2022/03/27 01:11:11;;;;;;;0.70;0.53;;;;;;;;;;1811086;78;26893;-52
2022/03/27 01:13:40;;;;;;;0.62;0.50;;;;;;;;;;1810380;78;26279;-53
2022/03/27 01:16:09;;;;;;;0.40;0.40;;;;;;;;;;1811012;77;26251;-53
2022/03/27 01:18:36;;;;;;;0.40;0.40;;;;;;;;;;1811235;78;26285;-57
2022/03/27 01:21:03;;;;;;;0.55;0.55;;;;;;;;;;1812658;78;26386;-59
2022/03/27 01:23:30;;;;;;;0.47;0.47;;;;;;;;;;1810956;78;26274;-54
2022/03/27 01:25:58;;;;;;;0.50;0.50;;;;;;;;;;1811511;78;26223;-54
2022/03/27 01:28:25;;;;;;;0.47;0.47;;;;;;;;;;1811052;78;26359;-58
2022/03/27 01:30:52;;;;;;;0.30;0.30;;;;;;;;;;1813169;77;26818;-56
2022/03/27 01:33:20;;;;;;;0.50;0.50;;;;;;;;;;1811563;78;26599;-56
2022/03/27 01:35:47;;;;;;;0.40;0.40;;;;;;;;;;1810984;78;26348;-55
2022/03/27 01:38:14;;;;;;;1.22;0.40;;;;;;;;;;1810932;78;26305;-52
2022/03/27 01:40:41;;;;;;;0.40;0.40;;;;;;;;;;1807543;78;26724;-58
2022/03/27 01:43:09;;;;;;;1.07;0.47;;;;;;;;;;1806910;78;26785;-51
2022/03/27 01:45:36;;;;;;;0.40;0.40;;;;;;;;;;1807450;78;26713;-57
2022/03/27 01:48:04;;;;;;;0.35;0.35;;;;;;;;;;1812627;78;26737;-59
2022/03/27 01:50:31;;;;;;;0.42;0.40;;;;;;;;;;1809672;78;26273;-54
2022/03/27 01:52:58;;;;;;;1.45;0.37;;;;;;;;;;1810819;78;26805;-52
2022/03/27 01:55:26;;;;;;;0.50;0.50;;;;;;;;;;1807226;78;26352;-55
2022/03/27 01:57:53;;;;;;;0.47;0.47;;;;;;;;;;1810652;78;26556;-50
2022/03/27 02:00:20;;;;;;;0.68;0.40;;;;;;;;;;1807081;78;26333;-55
2022/03/27 02:02:48;;;;;;;0.40;0.40;;;;;;;;;;1810379;78;26411;-52
2022/03/27 02:05:15;;;;;;;0.30;0.30;;;;;;;;;;1807296;78;26276;-53
2022/03/27 02:07:43;;;;;;;0.45;0.45;;;;;;;;;;1810794;78;26384;-57
2022/03/27 02:10:10;;;;;;;2.33;0.60;;;;;;;;;;1809870;78;26401;-50
2022/03/27 02:12:38;;;;;;;0.47;0.47;;;;;;;;;;1808068;78;26380;-51
2022/03/27 02:15:06;;;;;;;0.30;0.30;;;;;;;;;;1810925;78;26259;-57
2022/03/27 02:17:35;;;;;;;2.65;0.55;;;;;;;;;;1808176;78;26709;-54
2022/03/27 02:20:02;;;;;;;0.50;0.50;;;;;;;;;;1807212;78;27300;-52
2022/03/27 02:22:29;;;;;;;0.40;0.40;;;;;;;;;;1807615;78;26348;-59
2022/03/27 02:24:56;;;;;;;1.22;0.40;;;;;;;;;;1812218;78;26294;-59
2022/03/27 02:27:24;;;;;;;1.65;0.45;;;;;;;;;;1807210;78;26278;-61
2022/03/27 02:29:51;;;;;;;0.88;0.53;;;;;;;;;;1811848;78;26259;-56
2022/03/27 02:32:19;;;;;;;0.40;0.40;;;;;;;;;;1808523;78;26243;-54
2022/03/27 02:34:47;;;;;;;0.40;0.40;;;;;;;;;;1811161;78;26282;-52
2022/03/27 02:37:14;;;;;;;0.60;0.42;;;;;;;;;;1807100;78;26285;-54
2022/03/27 02:39:44;;;;;;;0.50;0.50;;;;;;;;;;1813955;78;26990;-51
2022/03/27 02:42:11;;;;;;;1.12;0.50;;;;;;;;;;1802458;78;26630;-50
2022/03/27 02:44:38;;;;;;;1.02;0.55;;;;;;;;;;1811087;78;26337;-55
2022/03/27 02:47:06;;;;;;;0.68;0.57;;;;;;;;;;1810693;78;26271;-56
2022/03/27 02:49:33;;;;;;;0.50;0.50;;;;;;;;;;1809388;78;25725;-52
2022/03/27 02:52:01;;;;;;;0.40;0.40;;;;;;;;;;1807224;78;26278;-49
2022/03/27 02:54:28;;;;;;;0.40;0.40;;;;;;;;;;1802251;78;26376;-57
2022/03/27 02:56:55;;;;;;;0.95;0.72;;;;;;;;;;1793605;78;26279;-52
2022/03/27 02:59:22;;;;;;;0.30;0.30;;;;;;;;;;1797946;78;26332;-51
2022/03/27 03:01:50;;;;;;;0.30;0.30;;;;;;;;;;1797982;78;26337;-52
2022/03/27 03:04:17;;;;;;;1.75;0.50;;;;;;;;;;1797473;78;26344;-49
2022/03/27 03:06:44;;;;;;;0.40;0.40;;;;;;;;;;1798094;78;26388;-59
2022/03/27 03:09:12;;;;;;;0.40;0.40;;;;;;;;;;1798174;78;26317;-50
2022/03/27 03:11:39;;;;;;;0.50;0.50;;;;;;;;;;1797429;78;26373;-52
2022/03/27 03:14:06;;;;;;;0.42;0.40;;;;;;;;;;1792775;78;26285;-58
2022/03/27 03:16:34;;;;;;;0.65;0.50;;;;;;;;;;1798130;78;26946;-55
2022/03/27 03:19:02;;;;;;;0.40;0.40;;;;;;;;;;1797962;78;26935;-56
2022/03/27 03:21:30;;;;;;;0.75;0.40;;;;;;;;;;1798305;78;26265;-57
2022/03/27 03:23:57;;;;;;;0.45;0.45;;;;;;;;;;1794354;78;26843;-55
2022/03/27 03:26:25;;;;;;;0.30;0.30;;;;;;;;;;1794152;78;27384;-58
2022/03/27 03:28:52;;;;;;;0.42;0.42;;;;;;;;;;1797621;78;26328;-53
2022/03/27 03:31:19;;;;;;;0.40;0.40;;;;;;;;;;1798182;78;26281;-52
2022/03/27 03:33:47;;;;;;;0.50;0.50;;;;;;;;;;1798203;78;26328;-57
2022/03/27 03:36:15;;;;;;;0.40;0.40;;;;;;;;;;1795522;78;26305;-50
2022/03/27 03:38:43;;;;;;;0.45;0.45;;;;;;;;;;1801337;78;26328;-53
2022/03/27 03:41:10;;;;;;;0.60;0.60;;;;;;;;;;1793769;78;26254;-50
2022/03/27 03:43:37;;;;;;;0.50;0.50;;;;;;;;;;1795004;78;26290;-54
2022/03/27 03:46:05;;;;;;;0.50;0.50;;;;;;;;;;1794261;78;26309;-59
2022/03/27 03:48:33;;;;;;;0.47;0.47;;;;;;;;;;1798091;78;26395;-52
2022/03/27 03:51:00;;;;;;;0.45;0.40;;;;;;;;;;1798234;78;26266;-54
2022/03/27 03:53:27;;;;;;;0.35;0.35;;;;;;;;;;1797442;78;26317;-56
2022/03/27 03:55:55;;;;;;;0.55;0.40;;;;;;;;;;1812907;77;26780;-51
2022/03/27 03:58:22;;;;;;;0.47;0.47;;;;;;;;;;1817331;77;26262;-54
2022/03/27 04:00:50;;;;;;;0.40;0.40;;;;;;;;;;1816344;77;26334;-53
2022/03/27 04:03:18;;;;;;;0.40;0.40;;;;;;;;;;1813374;77;26596;-53
2022/03/27 04:05:45;;;;;;;0.35;0.33;;;;;;;;;;1817082;77;27306;-58
2022/03/27 04:08:14;;;;;;;0.33;0.33;;;;;;;;;;1817573;77;26689;-49
2022/03/27 04:10:42;;;;;;;0.53;0.53;;;;;;;;;;1818737;77;26414;-54
2022/03/27 04:13:12;;;;;;;0.40;0.40;;;;;;;;;;1814665;77;26270;-55
2022/03/27 04:15:39;;;;;;;0.40;0.40;;;;;;;;;;1816982;77;26289;-51
2022/03/27 04:18:07;;;;;;;0.47;0.45;;;;;;;;;;1780037;80;26278;-53
2022/03/27 04:20:38;;;;;;;0.40;0.40;;;;;;;;;;1785614;79;26263;-55
2022/03/27 04:23:05;;;;;;;0.40;0.40;;;;;;;;;;1786079;79;27545;-60
2022/03/27 04:25:32;;;;;;;0.95;0.40;;;;;;;;;;1786750;79;26298;-59
2022/03/27 04:28:01;;;;;;;0.40;0.40;;;;;;;;;;1786851;79;26356;-58
2022/03/27 04:30:29;;;;;;;0.33;0.33;;;;;;;;;;1769559;80;26292;-55
2022/03/27 04:32:56;;;;;;;0.70;0.30;;;;;;;;;;1786126;79;26281;-49
2022/03/27 04:35:23;;;;;;;0.30;0.30;;;;;;;;;;1786198;79;26289;-55
2022/03/27 04:37:50;;;;;;;0.30;0.30;;;;;;;;;;1788806;79;27238;-57
2022/03/27 04:40:18;;;;;;;0.40;0.40;;;;;;;;;;1786530;79;26784;-50
2022/03/27 04:42:46;;;;;;;0.80;0.47;;;;;;;;;;1742309;80;27097;-59
2022/03/27 04:45:13;;;;;;;0.40;0.40;;;;;;;;;;1782975;79;26356;-51
2022/03/27 04:47:41;;;;;;;0.40;0.40;;;;;;;;;;1755424;80;25403;-50
2022/03/27 04:50:08;;;;;;;0.40;0.40;;;;;;;;;;1780510;79;26279;-53
2022/03/27 04:52:36;;;;;;;0.28;0.28;;;;;;;;;;1786372;80;26831;-55
2022/03/27 04:55:05;;;;;;;0.40;0.30;;;;;;;;;;1814753;77;26325;-53
2022/03/27 04:57:33;;;;;;;0.90;0.30;;;;;;;;;;1785109;78;26268;-59
2022/03/27 05:00:01;;;;;;;0.40;0.40;;;;;;;;;;1797662;78;26710;-54
2022/03/27 05:02:28;;;;;;;0.23;0.23;;;;;;;;;;1798469;78;26222;-54
2022/03/27 05:04:56;;;;;;;0.30;0.30;;;;;;;;;;1798337;78;26343;-57
2022/03/27 05:07:23;;;;;;;0.50;0.50;;;;;;;;;;1798486;80;26619;-59
2022/03/27 05:09:50;;;;;;;0.30;0.30;;;;;;;;;;1805003;78;26325;-57
2022/03/27 05:12:18;;;;;;;1.32;0.37;;;;;;;;;;1789820;78;26337;-59
2022/03/27 05:14:45;;;;;;;0.40;0.40;;;;;;;;;;1798760;78;26278;-56
2022/03/27 05:17:12;;;;;;;1.25;0.25;;;;;;;;;;1799133;78;26265;-52
2022/03/27 05:19:41;;;;;;;0.40;0.40;;;;;;;;;;1792292;78;26231;-51
2022/03/27 05:22:08;;;;;;;0.30;0.30;;;;;;;;;;1794128;78;26807;-50
2022/03/27 05:24:35;;;;;;;0.30;0.30;;;;;;;;;;1790888;78;26271;-52
2022/03/27 05:27:03;;;;;;;0.40;0.40;;;;;;;;;;1799597;78;26222;-54
2022/03/27 05:29:30;;;;;;;0.40;0.40;;;;;;;;;;1801818;78;26270;-54
2022/03/27 05:31:58;;;;;;;0.40;0.40;;;;;;;;;;1798005;78;26698;-52
2022/03/27 05:34:25;;;;;;;0.20;0.20;;;;;;;;;;1797774;78;26795;-54
2022/03/27 05:36:52;;;;;;;0.37;0.37;;;;;;;;;;1798248;78;26277;-52
2022/03/27 05:39:20;;;;;;;0.40;0.40;;;;;;;;;;1800318;78;26335;-53
2022/03/27 05:41:47;;;;;;;0.40;0.40;;;;;;;;;;1794048;78;26903;-53
2022/03/27 05:44:15;;;;;;;0.40;0.40;;;;;;;;;;1797788;78;26349;-51
2022/03/27 05:46:43;;;;;;;0.65;0.20;;;;;;;;;;1780160;78;26293;-53
2022/03/27 05:49:10;;;;;;;0.33;0.33;;;;;;;;;;1793730;78;26277;-55
2022/03/27 05:51:37;;;;;;;0.40;0.35;;;;;;;;;;1798109;78;26274;-49
2022/03/27 05:54:04;;;;;;;0.25;0.20;;;;;;;;;;1798128;78;26872;-50
2022/03/27 05:56:32;;;;;;;1.92;0.40;;;;;;;;;;1805208;77;26844;-55
2022/03/27 05:58:59;;;;;;;0.50;0.30;;;;;;;;;;1810549;78;26986;-56
2022/03/27 06:01:26;;;;;;;1.35;0.40;;;;;;;;;;1807335;78;26289;-54
2022/03/27 06:03:54;;;;;;;1.20;0.40;;;;;;;;;;1767355;79;26376;-53
2022/03/27 06:06:21;;;;;;;0.33;0.33;;;;;;;;;;1774364;79;26307;-54
2022/03/27 06:08:50;;;;;;;0.80;0.35;;;;;;;;;;1742024;81;26886;-49
2022/03/27 06:11:17;;;;;;;1.35;0.50;;;;;;;;;;1767978;79;26899;-57
2022/03/27 06:13:44;;;;;;;0.40;0.40;;;;;;;;;;1778174;79;26741;-59
2022/03/27 06:16:11;;;;;;;2.83;0.40;;;;;;;;;;1772793;79;26769;-53
2022/03/27 06:18:39;;;;;;;1.82;0.45;;;;;;;;;;1775144;79;26226;-53
2022/03/27 06:21:06;;;;;;;1.20;0.57;;;;;;;;;;1765298;79;26270;-52
2022/03/27 06:23:33;;;;;;;0.78;0.75;;;;;;;;;;1765302;81;26293;-54
2022/03/27 06:26:00;;;;;;;6.15;0.42;;;;;;;;;;1780146;79;26344;-55
2022/03/27 06:28:28;;;;;;;0.55;0.50;;;;;;;;;;1776037;81;26274;-54
2022/03/27 06:30:55;;;;;;;0.85;0.40;;;;;;;;;;1775576;79;26341;-53
2022/03/27 06:33:22;;;;;;;2.08;0.50;;;;;;;;;;1741861;81;26386;-52
2022/03/27 06:35:49;;;;;;;1.70;0.42;;;;;;;;;;1762114;80;26279;-55
2022/03/27 06:38:17;;;;;;;2.08;0.50;;;;;;;;;;1759444;80;26284;-58
2022/03/27 06:40:45;;;;;;;0.65;0.50;;;;;;;;;;1764549;80;26992;-59
2022/03/27 06:43:12;;;;;;;1.27;0.50;;;;;;;;;;1762854;80;26337;-57
2022/03/27 06:45:40;;;;;;;1.42;0.35;;;;;;;;;;1763300;80;26287;-60
2022/03/27 06:48:07;;;;;;;2.95;0.85;;;;;;;;;;1762752;80;26294;-51
2022/03/27 06:50:35;;;;;;;1.45;0.60;;;;;;;;;;1761899;80;26751;-57
2022/03/27 06:53:02;;;;;;;0.90;0.47;;;;;;;;;;1762094;80;26839;-54
2022/03/27 06:55:29;;;;;;;1.80;0.45;;;;;;;;;;1763621;80;26341;-59
2022/03/27 06:57:57;;;;;;;0.65;0.50;;;;;;;;;;1761009;80;26378;-51
2022/03/27 07:03:12;;;;;;;1.37;1.20;;;;;;;;;;1763165;80;26773;-53
2022/03/27 07:05:41;;;;;;;2.12;2.00;;;;;;;;;;1761286;80;26853;-51
2022/03/27 07:08:13;;;;;;;4.62;3.70;;;;;;;;;;1756102;80;26739;-53
2022/03/27 07:10:41;;;;;;;9.33;6.20;;;;;;;;;;1763134;80;26357;-55
2022/03/27 07:13:09;;;;;;;16.73;10.48;;;;;;;;;;1762245;80;26338;-56
2022/03/27 07:15:38;;;;;;;23.73;15.05;;;;;;;;;;1762623;80;26349;-49
2022/03/27 07:18:06;;;;;;;29.37;19.32;;;;;;;;;;1760320;80;25703;-59
2022/03/27 07:20:35;;;;;;;40.33;23.85;;;;;;;;;;1757953;80;26291;-57
2022/03/27 07:23:04;;;;;;;44.48;27.77;;;;;;;;;;1759782;80;26940;-60
2022/03/27 07:25:34;;;;;;;53.60;32.15;;;;;;;;;;1759441;80;26841;-56
2022/03/27 07:28:02;;;;;;;58.92;35.55;;;;;;;;;;1761741;80;26358;-56
2022/03/27 07:30:30;;;;;;;61.58;37.85;;;;;;;;;;1760027;80;26746;-53
2022/03/27 07:32:57;;;;;;;65.90;40.25;;;;;;;;;;1765048;80;26352;-60
2022/03/27 07:35:30;;;;;;;76.65;46.35;;;;;;;;;;1763302;80;26278;-59
2022/03/27 07:37:57;;;;;;;74.77;45.15;;;;;;;;;;1770235;80;26434;-60
2022/03/27 07:40:25;;;;;;;73.40;45.00;;;;;;;;;;1765171;81;26345;-57
2022/03/27 07:42:54;;;;;;;75.75;45.83;;;;;;;;;;1740709;80;26353;-51
2022/03/27 07:45:23;;;;;;;71.95;43.95;;;;;;;;;;1764609;81;26306;-60
2022/03/27 07:47:51;;;;;;;71.92;44.00;;;;;;;;;;1763895;81;26918;-60
2022/03/27 07:50:19;;;;;;;71.47;43.73;;;;;;;;;;1750905;81;26309;-60
2022/03/27 07:52:47;;;;;;;68.35;42.58;;;;;;;;;;1764959;80;27567;-58
2022/03/27 07:55:15;;;;;;;69.42;41.73;;;;;;;;;;1765456;80;26414;-60
2022/03/27 07:57:43;;;;;;;64.85;41.20;;;;;;;;;;1754736;80;26377;-59
2022/03/27 08:00:12;;;;;;;62.93;40.05;;;;;;;;;;1779295;79;26286;-55
2022/03/27 08:02:40;;;;;;;61.65;38.20;;;;;;;;;;1779815;80;26305;-59
2022/03/27 08:05:08;;;;;;;62.88;38.30;;;;;;;;;;1777082;79;26837;-58
2022/03/27 08:07:36;;;;;;;59.67;36.90;;;;;;;;;;1775905;79;25761;-57
2022/03/27 08:10:04;;;;;;;57.40;35.68;;;;;;;;;;1779083;79;26376;-53
2022/03/27 08:12:35;;;;;;;57.60;35.38;;;;;;;;;;1775865;79;26277;-56
2022/03/27 08:15:04;;;;;;;54.70;33.88;;;;;;;;;;1778201;79;26336;-62
2022/03/27 08:17:31;;;;;;;54.60;31.93;;;;;;;;;;1779102;80;26283;-56
2022/03/27 08:19:59;;;;;;;52.40;31.07;;;;;;;;;;1776678;80;27342;-55
2022/03/27 08:22:26;;;;;;;51.23;30.48;;;;;;;;;;1779768;79;26690;-58
2022/03/27 08:24:54;;;;;;;53.02;29.65;;;;;;;;;;1779070;79;26359;-59
2022/03/27 08:27:21;;;;;;;48.92;28.32;;;;;;;;;;1779052;79;26882;-56
2022/03/27 08:29:49;;;;;;;48.50;27.20;;;;;;;;;;1775674;80;26659;-58
2022/03/27 08:32:17;;;;;;;45.08;25.88;;;;;;;;;;1779838;79;26717;-59
2022/03/27 08:34:46;;;;;;;44.00;24.92;;;;;;;;;;1777447;79;26705;-59
2022/03/27 08:37:14;;;;;;;40.92;25.57;;;;;;;;;;1763909;79;28920;-54
2022/03/27 08:39:44;;;;;;;41.33;21.87;;;;;;;;;;1777578;79;29049;-57
2022/03/27 08:42:11;;;;;;;35.28;17.25;;;;;;;;;;1772981;79;26716;-52
2022/03/27 08:44:39;;;;;;;33.18;16.20;;;;;;;;;;1774999;79;26468;-58
2022/03/27 08:47:08;;;;;;;25.97;14.60;;;;;;;;;;1775232;79;26306;-56
2022/03/27 08:49:42;;;;;;;22.62;14.03;;;;;;;;;;1779013;79;26230;-61
2022/03/27 08:52:11;;;;;;;25.02;13.35;;;;;;;;;;1782318;79;26326;-59
2022/03/27 08:54:48;;;;;;;26.12;13.62;;;;;;;;;;1778121;79;26671;-59
2022/03/27 08:57:26;;;;;;;23.30;12.78;;;;;;;;;;1777107;79;26380;-54
2022/03/27 08:59:54;;;;;;;23.80;12.93;;;;;;;;;;1777763;79;26410;-58
2022/03/27 09:02:25;;;;;;;20.88;13.08;;;;;;;;;;1778437;79;26651;-62
2022/03/27 09:04:55;;;;;;;20.43;12.65;;;;;;;;;;1778653;79;26755;-57
2022/03/27 09:07:26;;;;;;;20.77;12.43;;;;;;;;;;1777954;79;26325;-60
2022/03/27 09:09:54;;;;;;;20.25;12.00;;;;;;;;;;1778441;79;26400;-58
2022/03/27 09:12:22;;;;;;;23.77;12.50;;;;;;;;;;1779624;79;26364;-56
2022/03/27 09:14:49;;;;;;;18.52;10.82;;;;;;;;;;1779425;79;26336;-58
2022/03/27 09:17:16;;;;;;;21.70;11.45;;;;;;;;;;1770268;80;26713;-54
2022/03/27 09:19:48;;;;;;;21.07;10.98;;;;;;;;;;1770946;79;26343;-59
2022/03/27 09:22:17;;;;;;;18.10;10.03;;;;;;;;;;1779015;79;26319;-61
2022/03/27 09:24:50;;;;;;;15.25;10.08;;;;;;;;;;1775285;79;26380;-61
2022/03/27 09:27:15;;;;;;;14.07;9.53;;;;;;;;;;1778141;79;26313;-55
2022/03/27 09:29:58;;;;;;;15.63;9.15;;;;;;;;;;1769168;80;26749;-55
2022/03/27 09:32:26;;;;;;;17.25;8.95;;;;;;;;;;1780028;80;26294;-61
2022/03/27 09:35:01;;;;;;;13.08;8.75;;;;;;;;;;1779600;79;26282;-55
2022/03/27 09:37:30;;;;;;;13.98;8.13;;;;;;;;;;1773113;80;26657;-58
2022/03/27 09:39:57;;;;;;;11.30;8.08;;;;;;;;;;1772362;79;26290;-54
2022/03/27 09:42:25;;;;;;;11.03;7.67;;;;;;;;;;1765651;80;26625;-58
2022/03/27 09:45:11;;;;;;;12.33;7.20;;;;;;;;;;1777840;80;26371;-56
2022/03/27 09:47:39;;;;;;;10.10;6.70;;;;;;;;;;1777470;80;26839;-61
2022/03/27 09:50:08;;;;;;;11.50;6.50;;;;;;;;;;1778936;79;26282;-62
2022/03/27 09:52:36;;;;;;;9.88;6.28;;;;;;;;;;1778222;79;26298;-54
2022/03/27 09:55:07;;;;;;;8.60;5.87;;;;;;;;;;1770695;80;26309;-56
2022/03/27 09:57:36;;;;;;;6.65;5.47;;;;;;;;;;1761539;80;26343;-59
2022/03/27 10:00:14;;;;;;;9.90;6.00;;;;;;;;;;1761001;80;26321;-59
2022/03/27 10:02:42;;;;;;;7.37;5.33;;;;;;;;;;1764317;81;26331;-60
2022/03/27 10:05:11;;;;;;;7.33;4.92;;;;;;;;;;1764803;81;26357;-59
2022/03/27 10:07:40;;;;;;;6.28;4.95;;;;;;;;;;1763499;80;26299;-58
2022/03/27 10:10:10;;;;;;;6.37;4.92;;;;;;;;;;1765570;80;26950;-59
2022/03/27 10:12:38;;;;;;;7.03;4.92;;;;;;;;;;1760695;81;26357;-56
2022/03/27 10:15:07;;;;;;;5.53;4.53;;;;;;;;;;1764743;80;26300;-61
2022/03/27 10:17:36;;;;;;;5.78;4.17;;;;;;;;;;1763792;80;26298;-59
2022/03/27 10:20:05;;;;;;;5.17;4.50;;;;;;;;;;1758579;81;26317;-53
2022/03/27 10:22:37;;;;;;;6.83;4.83;;;;;;;;;;1765305;80;26294;-59
2022/03/27 10:25:04;;;;;;;5.20;4.50;;;;;;;;;;1765478;80;27002;-59
2022/03/27 10:27:31;;;;;;;5.87;4.10;;;;;;;;;;1766096;80;26287;-58
2022/03/27 10:29:59;;;;;;;4.70;4.20;;;;;;;;;;1759713;80;26348;-56
2022/03/27 10:32:27;;;;;;;4.87;4.37;;;;;;;;;;1763849;80;26381;-62
2022/03/27 10:34:59;;;;;;;4.65;4.20;;;;;;;;;;1765586;80;26372;-59
2022/03/27 10:37:30;;;;;;;5.75;4.60;;;;;;;;;;1760091;80;26306;-55
2022/03/27 10:40:11;;;;;;;4.85;4.10;;;;;;;;;;1766694;80;26272;-53
2022/03/27 10:42:40;;;;;;;6.65;4.72;;;;;;;;;;1777065;80;26393;-59
2022/03/27 10:45:09;;;;;;;6.20;4.65;;;;;;;;;;1764385;80;26354;-59
2022/03/27 10:47:37;;;;;;;5.28;4.45;;;;;;;;;;1761565;80;26279;-58
2022/03/27 10:50:08;;;;;;;5.20;4.15;;;;;;;;;;1765824;80;26346;-61
2022/03/27 10:52:39;;;;;;;5.35;4.08;;;;;;;;;;1762204;80;26785;-58
2022/03/27 10:55:08;;;;;;;4.60;4.20;;;;;;;;;;1762909;80;26303;-56
2022/03/27 10:57:36;;;;;;;4.65;4.17;;;;;;;;;;1765312;80;26302;-59
2022/03/27 11:00:05;;;;;;;4.97;3.95;;;;;;;;;;1778372;79;26343;-59
2022/03/27 11:02:47;;;;;;;4.60;4.00;;;;;;;;;;1779881;79;26831;-57
2022/03/27 11:05:30;;;;;;;4.75;4.03;;;;;;;;;;1774218;79;26288;-56
2022/03/27 11:08:17;;;;;;;3.90;3.60;;;;;;;;;;1770082;80;26305;-50
2022/03/27 11:10:49;;;;;;;4.12;3.37;;;;;;;;;;1780717;79;26462;-49
2022/03/27 11:13:29;;;;;;;3.30;3.00;;;;;;;;;;1765236;79;26341;-54
2022/03/27 11:16:03;;;;;;;3.25;2.95;;;;;;;;;;1779043;80;26301;-53
2022/03/27 11:18:38;;;;;;;3.33;3.02;;;;;;;;;;1778462;79;26575;-54
2022/03/27 11:21:06;;;;;;;4.83;2.70;;;;;;;;;;1779468;80;26227;-52
2022/03/27 11:23:37;;;;;;;2.75;2.58;;;;;;;;;;1779599;80;26300;-56
2022/03/27 11:26:05;;;;;;;2.90;2.70;;;;;;;;;;1779213;79;27041;-51
2022/03/27 11:28:52;;;;;;;2.60;2.40;;;;;;;;;;1778457;80;26438;-52
2022/03/27 11:31:33;;;;;;;3.00;2.62;;;;;;;;;;1753039;80;26266;-55
2022/03/27 11:34:07;;;;;;;2.90;2.35;;;;;;;;;;1778522;80;26299;-52
2022/03/27 11:36:36;;;;;;;3.37;2.33;;;;;;;;;;1767454;80;26223;-57
2022/03/27 11:39:13;;;;;;;2.85;2.27;;;;;;;;;;1784162;79;26878;-46
2022/03/27 11:41:44;;;;;;;2.35;2.10;;;;;;;;;;1768837;79;26296;-52
2022/03/27 11:44:13;;;;;;;2.27;2.12;;;;;;;;;;1756923;82;26349;-75
2022/03/27 11:46:42;;;;;;;2.20;2.05;;;;;;;;;;1756657;79;26335;-60
2022/03/27 11:49:11;;;;;;;2.58;1.95;;;;;;;;;;1777323;79;26828;-51
2022/03/27 11:51:38;;;;;;;2.08;1.98;;;;;;;;;;1768961;79;26251;-52
2022/03/27 11:54:07;;;;;;;2.15;1.90;;;;;;;;;;1767924;79;28809;-55
2022/03/27 11:56:34;;;;;;;3.15;1.92;;;;;;;;;;1776141;79;26350;-63
2022/03/27 11:59:12;;;;;;;1.98;1.85;;;;;;;;;;1775319;79;26331;-57
2022/03/27 12:01:40;;;;;;;1.80;1.70;;;;;;;;;;1761964;80;26861;-56
2022/03/27 12:04:07;;;;;;;1.65;1.57;;;;;;;;;;1753188;80;26287;-58
2022/03/27 12:06:37;;;;;;;1.90;1.80;;;;;;;;;;1767152;80;26291;-57
2022/03/27 12:09:04;;;;;;;1.57;1.47;;;;;;;;;;1770041;80;26478;-55
2022/03/27 12:11:31;;;;;;;3.80;1.60;;;;;;;;;;1771422;80;26308;-62
2022/03/27 12:14:00;;;;;;;2.20;2.00;;;;;;;;;;1758005;80;26417;-60
2022/03/27 12:16:29;;;;;;;2.60;1.80;;;;;;;;;;1757097;80;26227;-56
2022/03/27 12:18:58;;;;;;;1.87;1.50;;;;;;;;;;1764716;80;26271;-58
2022/03/27 12:21:25;;;;;;;1.90;1.80;;;;;;;;;;1765064;80;26329;-54
2022/03/27 12:23:56;;;;;;;1.52;1.30;;;;;;;;;;1764854;80;26314;-60
2022/03/27 12:32:01;;;;;;;1.40;1.30;;;;;;;;;;1762234;80;26298;-50
2022/03/27 12:34:28;;;;;;;1.75;1.65;;;;;;;;;;1762604;81;26380;-55
2022/03/27 12:37:09;;;;;;;1.35;1.27;;;;;;;;;;1756316;80;26282;-58
2022/03/27 12:39:35;;;;;;;2.15;1.22;;;;;;;;;;1769428;80;27348;-62
2022/03/27 12:42:02;;;;;;;1.40;1.30;;;;;;;;;;1742855;80;26287;-62
2022/03/27 12:44:48;;;;;;;1.35;1.20;;;;;;;;;;1759155;81;26824;-56
2022/03/27 12:47:15;;;;;;;2.52;1.40;;;;;;;;;;1764285;80;26996;-62
2022/03/27 12:49:49;;;;;;;1.27;1.20;;;;;;;;;;1764228;80;26811;-59
2022/03/27 12:52:18;;;;;;;1.10;1.10;;;;;;;;;;1757469;80;26356;-58
2022/03/27 12:54:55;;;;;;;1.25;1.17;;;;;;;;;;1761882;80;26290;-52
2022/03/27 12:57:22;;;;;;;1.25;1.25;;;;;;;;;;1754738;80;26317;-57
2022/03/27 12:59:50;;;;;;;1.72;1.17;;;;;;;;;;1759201;80;26342;-54
2022/03/27 13:02:25;;;;;;;1.17;1.07;;;;;;;;;;1762040;80;26287;-57
2022/03/27 13:05:02;;;;;;;3.17;1.10;;;;;;;;;;1765065;81;26398;-61
2022/03/27 13:07:47;;;;;;;1.00;1.00;;;;;;;;;;1765389;81;26259;-54
2022/03/27 13:10:14;;;;;;;0.95;0.93;;;;;;;;;;1758499;80;26330;-53
2022/03/27 13:12:42;;;;;;;1.35;1.02;;;;;;;;;;1740375;80;26411;-56
2022/03/27 13:15:09;;;;;;;1.95;1.00;;;;;;;;;;1754200;81;26271;-58
2022/03/27 13:17:37;;;;;;;0.88;0.88;;;;;;;;;;1764450;80;26750;-61
2022/03/27 13:20:05;;;;;;;1.00;1.00;;;;;;;;;;1764816;81;25713;-55
2022/03/27 13:22:32;;;;;;;0.95;0.95;;;;;;;;;;1764316;80;26287;-54
2022/03/27 13:25:02;;;;;;;0.90;0.90;;;;;;;;;;1763689;81;26701;-57
2022/03/27 13:27:30;;;;;;;0.82;0.82;;;;;;;;;;1762364;80;26294;-56
2022/03/27 13:29:57;;;;;;;0.98;0.90;;;;;;;;;;1761084;80;26306;-64
2022/03/27 13:32:24;;;;;;;3.12;1.00;;;;;;;;;;1749363;81;26376;-60
2022/03/27 13:34:51;;;;;;;3.55;1.05;;;;;;;;;;1765706;81;26352;-61
2022/03/27 13:37:19;;;;;;;0.80;0.80;;;;;;;;;;1765297;80;26310;-59
2022/03/27 13:39:46;;;;;;;0.90;0.90;;;;;;;;;;1770471;80;26287;-57
2022/03/27 13:44:59;;;;;;;0.78;0.78;;;;;;;;;;1759739;80;26793;-55
2022/03/27 13:47:26;;;;;;;0.72;0.72;;;;;;;;;;1763097;80;26295;-53
2022/03/27 13:49:53;;;;;;;1.45;0.78;;;;;;;;;;1764524;80;26231;-61
2022/03/27 13:52:21;;;;;;;1.10;0.78;;;;;;;;;;1764730;80;26231;-57
2022/03/27 13:54:48;;;;;;;0.80;0.80;;;;;;;;;;1763420;80;26358;-55
2022/03/27 13:57:15;;;;;;;0.78;0.78;;;;;;;;;;1761532;80;27001;-55
2022/03/27 13:59:42;;;;;;;0.78;0.78;;;;;;;;;;1757284;81;26843;-64
2022/03/27 14:02:10;;;;;;;0.98;0.70;;;;;;;;;;1766997;80;26844;-56
2022/03/27 14:04:38;;;;;;;0.78;0.70;;;;;;;;;;1761043;80;26299;-60
2022/03/27 14:07:05;;;;;;;0.70;0.70;;;;;;;;;;1759309;80;26295;-53
2022/03/27 14:09:33;;;;;;;0.70;0.70;;;;;;;;;;1759026;80;26356;-58
2022/03/27 14:12:01;;;;;;;0.70;0.70;;;;;;;;;;1759279;80;27092;-57
2022/03/27 14:14:28;;;;;;;0.60;0.60;;;;;;;;;;1762236;80;26329;-61
2022/03/27 14:16:55;;;;;;;0.68;0.68;;;;;;;;;;1759361;80;26302;-64
2022/03/27 14:19:23;;;;;;;0.70;0.70;;;;;;;;;;1758841;80;26252;-54
2022/03/27 14:21:50;;;;;;;0.80;0.70;;;;;;;;;;1762323;80;26306;-56
2022/03/27 14:24:18;;;;;;;0.68;0.60;;;;;;;;;;1760412;80;26290;-56
2022/03/27 14:26:45;;;;;;;0.75;0.53;;;;;;;;;;1762084;80;26354;-54
2022/03/27 14:29:13;;;;;;;0.70;0.70;;;;;;;;;;1757907;80;26315;-59
2022/03/27 14:31:40;;;;;;;1.17;0.72;;;;;;;;;;1761782;80;26290;-63
2022/03/27 14:34:08;;;;;;;5.10;0.70;;;;;;;;;;1756058;80;26301;-55
2022/03/27 14:36:35;;;;;;;0.45;0.45;;;;;;;;;;1760554;80;26310;-61
2022/03/27 14:39:03;;;;;;;0.50;0.50;;;;;;;;;;1762812;80;25965;-55
2022/03/27 14:41:32;;;;;;;0.65;0.65;;;;;;;;;;1760011;80;26312;-56
2022/03/27 14:43:59;;;;;;;0.50;0.50;;;;;;;;;;1760408;80;26408;-56
2022/03/27 14:46:27;;;;;;;0.95;0.75;;;;;;;;;;1764355;80;26730;-54
2022/03/27 14:48:55;;;;;;;0.50;0.50;;;;;;;;;;1766150;80;26338;-61
2022/03/27 14:51:23;;;;;;;0.62;0.62;;;;;;;;;;1760496;80;26297;-53
2022/03/27 14:56:35;;;;;;;0.60;0.60;;;;;;;;;;1757278;80;26363;-58
2022/03/27 14:59:04;;;;;;;0.50;0.50;;;;;;;;;;1757709;80;26670;-59
2022/03/27 15:01:32;;;;;;;0.57;0.40;;;;;;;;;;1762796;80;25756;-55
2022/03/27 15:04:00;;;;;;;0.40;0.40;;;;;;;;;;1758594;80;26327;-52